createdAt,value
2022-11-12T01:03:36.281Z,13.50
2022-11-12T01:06:23.227Z,14.85
2022-11-12T01:09:09.578Z,14.85
2022-11-12T01:11:55.852Z,14.98
2022-11-12T01:14:42.719Z,14.70
2022-11-12T01:17:31.022Z,11.55
2022-11-12T01:20:17.453Z,10.63
2022-11-12T01:23:03.669Z,9.75
2022-11-12T01:25:49.755Z,9.65
2022-11-12T01:28:36.505Z,11.32
2022-11-12T01:31:42.939Z,11.93
2022-11-12T01:34:29.082Z,11.85
2022-11-12T01:37:16.041Z,10.40
2022-11-12T01:40:02.616Z,9.68
2022-11-12T01:42:53.461Z,9.07
2022-11-12T01:45:43.890Z,9.95
2022-11-12T01:48:41.050Z,9.02
2022-11-12T01:51:32.677Z,9.10
2022-11-12T01:54:20.363Z,8.85
2022-11-12T01:57:07.617Z,8.60
2022-11-12T02:00:00.965Z,7.78
2022-11-12T02:02:52.939Z,7.32
2022-11-12T02:05:41.217Z,8.40
2022-11-12T02:08:28.952Z,9.00
2022-11-12T02:11:16.730Z,9.50
2022-11-12T02:14:03.137Z,8.82
2022-11-12T02:16:51.268Z,7.50
2022-11-12T02:19:38.813Z,7.55
2022-11-12T02:22:25.312Z,7.20
2022-11-12T02:25:16.755Z,6.90
2022-11-12T02:28:05.542Z,7.07
2022-11-12T02:30:51.876Z,6.25
2022-11-12T02:33:38.555Z,6.30
2022-11-12T02:36:25.263Z,5.28
2022-11-12T02:39:11.112Z,5.63
2022-11-12T02:41:57.677Z,6.22
2022-11-12T02:44:45.275Z,6.47
2022-11-12T02:47:34.996Z,6.47
2022-11-12T02:50:21.874Z,6.60
2022-11-12T02:53:08.090Z,6.60
2022-11-12T02:55:54.905Z,8.38
2022-11-12T02:58:41.796Z,8.07
2022-11-12T03:01:27.813Z,7.95
2022-11-12T03:04:14.047Z,7.80
2022-11-12T03:07:02.443Z,7.25
2022-11-12T03:09:48.840Z,7.95
2022-11-12T03:12:35.124Z,8.20
2022-11-12T03:15:22.175Z,8.35
2022-11-12T03:18:08.863Z,7.65
2022-11-12T03:20:54.936Z,6.70
2022-11-12T03:23:41.176Z,6.50
2022-11-12T03:26:29.534Z,6.43
2022-11-12T03:29:19.356Z,6.53
2022-11-12T03:32:05.375Z,6.22
2022-11-12T03:34:55.380Z,7.60
2022-11-12T03:40:34.294Z,7.45
2022-11-12T03:43:20.787Z,8.60
2022-11-12T03:46:07.518Z,8.70
2022-11-12T03:48:54.303Z,8.57
2022-11-12T03:51:40.639Z,8.07
2022-11-12T03:54:27.111Z,7.07
2022-11-12T03:57:14.523Z,6.68
2022-11-12T04:00:03.862Z,7.80
2022-11-12T04:02:50.506Z,7.68
2022-11-12T04:05:54.671Z,8.65
2022-11-12T04:08:42.875Z,9.13
2022-11-12T04:11:28.834Z,9.50
2022-11-12T04:14:15.262Z,9.45
2022-11-12T04:17:23.885Z,9.57
2022-11-12T04:20:28.944Z,9.80
2022-11-12T04:23:15.132Z,10.18
2022-11-12T04:26:19.440Z,9.38
2022-11-12T04:29:24.818Z,10.90
2022-11-12T04:32:11.732Z,10.40
2022-11-12T04:34:58.214Z,10.68
2022-11-12T04:37:47.891Z,10.73
2022-11-12T04:40:52.977Z,10.70
2022-11-12T04:43:57.992Z,9.63
2022-11-12T04:46:44.502Z,9.70
2022-11-12T04:49:33.801Z,9.68
2022-11-12T04:52:22.471Z,9.60
2022-11-12T04:55:09.223Z,11.13
2022-11-12T04:58:00.369Z,10.23
2022-11-12T05:00:48.377Z,9.68
2022-11-12T05:03:28.296Z,10.20
2022-11-12T05:06:33.259Z,9.45
2022-11-12T05:09:20.166Z,8.50
2022-11-12T05:12:07.774Z,9.98
2022-11-12T05:14:54.041Z,8.32
2022-11-12T05:17:44.318Z,8.30
2022-11-12T05:20:32.214Z,9.02
2022-11-12T05:23:22.118Z,8.57
2022-11-12T05:26:08.037Z,8.70
2022-11-12T05:28:54.035Z,8.55
2022-11-12T05:31:40.187Z,8.90
2022-11-12T05:34:26.885Z,8.50
2022-11-12T05:37:13.599Z,8.55
2022-11-12T05:40:01.238Z,8.00
2022-11-12T05:42:48.149Z,8.43
2022-11-12T05:45:34.246Z,9.38
2022-11-12T05:48:24.353Z,8.30
2022-11-12T05:51:13.547Z,8.52
2022-11-12T05:54:02.453Z,8.63
2022-11-12T05:56:48.788Z,8.18
2022-11-12T05:59:34.796Z,9.38
2022-11-12T06:02:21.218Z,8.88
2022-11-12T06:05:08.283Z,8.50
2022-11-12T06:07:56.668Z,9.25
2022-11-12T06:10:45.918Z,9.60
2022-11-12T06:13:33.510Z,9.55
2022-11-12T06:16:21.899Z,9.02
2022-11-12T06:19:08.343Z,9.25
2022-11-12T06:21:54.723Z,8.98
2022-11-12T06:24:41.034Z,8.68
2022-11-12T06:27:28.529Z,8.27
2022-11-12T06:30:14.780Z,8.55
2022-11-12T06:33:02.297Z,8.60
2022-11-12T06:35:51.563Z,8.88
2022-11-12T06:38:39.366Z,9.45
2022-11-12T06:41:25.591Z,9.25
2022-11-12T06:44:20.766Z,9.32
2022-11-12T06:47:08.852Z,9.82
2022-11-12T06:49:55.680Z,9.45
2022-11-12T06:52:41.974Z,9.80
2022-11-12T06:55:28.644Z,10.23
2022-11-12T06:58:15.300Z,9.80
2022-11-12T07:01:08.518Z,10.07
2022-11-12T07:04:01.595Z,10.68
2022-11-12T07:06:48.576Z,9.73
2022-11-12T07:09:35.558Z,9.85
2022-11-12T07:12:21.505Z,9.77
2022-11-12T07:15:07.748Z,9.73
2022-11-12T07:18:04.879Z,9.48
2022-11-12T07:20:52.434Z,9.40
2022-11-12T07:23:39.297Z,10.77
2022-11-12T07:26:27.748Z,10.05
2022-11-12T07:29:29.950Z,10.50
2022-11-12T07:32:17.945Z,11.27
2022-11-12T07:35:04.046Z,10.38
2022-11-12T07:37:49.947Z,11.07
2022-11-12T07:40:35.951Z,11.05
2022-11-12T07:43:22.735Z,10.45
2022-11-12T07:46:12.222Z,11.88
2022-11-12T07:48:58.443Z,11.02
2022-11-12T07:51:47.205Z,11.15
2022-11-12T07:54:34.374Z,11.77
2022-11-12T07:57:25.095Z,11.52
2022-11-12T08:00:13.131Z,12.10
2022-11-12T08:03:04.952Z,11.52
2022-11-12T08:05:52.403Z,11.80
2022-11-12T08:08:38.680Z,12.00
2022-11-12T08:11:25.461Z,11.50
2022-11-12T08:14:12.067Z,11.68
2022-11-12T08:16:58.952Z,11.95
2022-11-12T08:19:45.097Z,12.13
2022-11-12T08:22:33.355Z,12.70
2022-11-12T08:25:23.800Z,12.43
2022-11-12T08:30:57.289Z,13.75
2022-11-12T08:33:44.435Z,13.13
2022-11-12T08:36:32.304Z,14.05
2022-11-12T08:39:18.686Z,14.05
2022-11-12T08:42:05.903Z,14.00
2022-11-12T08:44:55.351Z,14.10
2022-11-12T08:47:42.624Z,14.60
2022-11-12T08:50:32.395Z,14.32
2022-11-12T08:53:18.798Z,13.13
2022-11-12T08:56:05.249Z,13.85
2022-11-12T08:58:54.350Z,13.48
2022-11-12T09:01:40.577Z,13.15
2022-11-12T09:04:27.382Z,14.07
2022-11-12T09:07:43.245Z,13.65
2022-11-12T09:10:19.640Z,12.93
2022-11-12T09:13:06.357Z,12.68
2022-11-12T09:15:53.165Z,12.48
2022-11-12T09:18:39.550Z,11.40
2022-11-12T09:21:25.564Z,10.60
2022-11-12T09:24:11.979Z,10.70
2022-11-12T09:26:58.163Z,9.50
2022-11-12T09:29:44.300Z,9.75
2022-11-12T09:32:32.318Z,8.90
2022-11-12T09:35:18.709Z,8.48
2022-11-12T09:38:04.976Z,9.38
2022-11-12T09:41:02.133Z,8.48
2022-11-12T09:44:01.548Z,8.25
2022-11-12T09:47:05.528Z,8.35
2022-11-12T09:50:01.370Z,8.25
2022-11-12T09:52:49.999Z,8.05
2022-11-12T09:55:41.864Z,7.65
2022-11-12T09:58:28.489Z,8.45
2022-11-12T10:01:17.197Z,7.40
2022-11-12T10:04:10.864Z,7.13
2022-11-12T10:07:23.243Z,7.93
2022-11-12T10:10:09.762Z,7.30
2022-11-12T10:13:06.760Z,6.95
2022-11-12T10:16:17.638Z,6.85
2022-11-12T10:19:19.172Z,6.55
2022-11-12T10:22:14.748Z,6.72
2022-11-12T10:25:11.730Z,7.10
2022-11-12T10:27:59.112Z,7.05
2022-11-12T10:30:48.944Z,7.20
2022-11-12T10:33:35.510Z,6.88
2022-11-12T10:36:27.714Z,6.32
2022-11-12T10:39:32.675Z,5.95
2022-11-12T10:42:20.556Z,5.97
2022-11-12T10:45:20.443Z,6.30
2022-11-12T10:48:25.900Z,5.60
2022-11-12T10:51:26.315Z,6.22
2022-11-12T10:54:18.897Z,5.85
2022-11-12T10:57:26.711Z,5.53
2022-11-12T11:00:14.809Z,5.82
2022-11-12T11:03:03.056Z,5.82
2022-11-12T11:05:54.590Z,5.95
2022-11-12T11:08:42.005Z,5.00
2022-11-12T11:11:31.743Z,5.32
2022-11-12T11:14:27.721Z,5.20
2022-11-12T11:17:18.851Z,5.10
2022-11-12T11:20:17.391Z,5.40
2022-11-12T11:23:22.987Z,5.70
2022-11-12T11:26:31.810Z,5.68
2022-11-12T11:29:28.540Z,5.75
2022-11-12T11:32:17.828Z,5.38
2022-11-12T11:35:09.147Z,5.30
2022-11-12T11:38:06.608Z,5.68
2022-11-12T11:41:03.492Z,6.10
2022-11-12T11:43:56.641Z,5.85
2022-11-12T11:47:06.326Z,5.97
2022-11-12T11:50:12.934Z,5.88
2022-11-12T11:53:18.319Z,5.68
2022-11-12T11:56:10.614Z,6.28
2022-11-12T11:59:03.284Z,5.65
2022-11-12T12:01:58.922Z,5.85
2022-11-12T12:04:48.458Z,5.75
2022-11-12T12:07:54.006Z,5.80
2022-11-12T12:11:06.874Z,5.75
2022-11-12T12:14:08.442Z,5.90
2022-11-12T12:17:09.529Z,6.78
2022-11-12T12:20:14.022Z,6.35
2022-11-12T12:23:12.468Z,6.65
2022-11-12T12:26:01.233Z,6.18
2022-11-12T12:28:55.364Z,6.10
2022-11-12T12:31:45.994Z,5.43
2022-11-12T12:37:33.076Z,5.90
2022-11-12T12:40:20.061Z,6.10
2022-11-12T12:43:30.965Z,5.78
2022-11-12T12:46:21.587Z,5.82
2022-11-12T12:49:08.695Z,5.97
2022-11-12T12:51:56.201Z,5.75
2022-11-12T12:54:42.440Z,5.90
2022-11-12T12:57:35.237Z,5.80
2022-11-12T13:00:38.129Z,5.40
2022-11-12T13:03:46.293Z,5.40
2022-11-12T13:06:35.692Z,5.65
2022-11-12T13:09:25.628Z,5.80
2022-11-12T13:12:11.518Z,5.80
2022-11-12T13:15:13.557Z,5.65
2022-11-12T13:18:02.323Z,5.07
2022-11-12T13:21:12.117Z,5.88
2022-11-12T13:24:09.443Z,5.95
2022-11-12T13:26:58.434Z,5.95
2022-11-12T13:29:48.475Z,5.25
2022-11-12T13:32:39.397Z,4.68
2022-11-12T13:35:25.701Z,4.90
2022-11-12T13:38:18.009Z,5.20
2022-11-12T13:41:18.801Z,5.18
2022-11-12T13:44:07.980Z,5.30
2022-11-12T13:46:58.336Z,5.63
2022-11-12T13:49:45.610Z,5.43
2022-11-12T13:52:35.706Z,5.10
2022-11-12T13:55:23.013Z,6.40
2022-11-12T13:58:20.977Z,5.75
2022-11-12T14:01:08.302Z,5.45
2022-11-12T14:03:57.126Z,6.05
2022-11-12T14:06:53.461Z,5.90
2022-11-12T14:09:52.482Z,6.00
2022-11-12T14:12:58.039Z,6.32
2022-11-12T14:16:03.168Z,6.32
2022-11-12T14:18:55.999Z,6.20
2022-11-12T14:21:43.318Z,5.68
2022-11-12T14:24:32.234Z,5.18
2022-11-12T14:27:24.557Z,5.57
2022-11-12T14:30:33.438Z,5.65
2022-11-12T14:33:21.438Z,5.22
2022-11-12T14:36:11.517Z,5.80
2022-11-12T14:38:59.187Z,4.97
2022-11-12T14:41:52.009Z,5.28
2022-11-12T14:44:38.918Z,5.80
2022-11-12T14:47:25.814Z,5.40
2022-11-12T14:50:17.995Z,4.75
2022-11-12T14:53:24.705Z,5.40
2022-11-12T14:56:14.823Z,5.65
2022-11-12T14:59:02.776Z,5.28
2022-11-12T15:05:19.478Z,5.68
2022-11-12T15:08:12.936Z,5.30
2022-11-12T15:11:18.749Z,6.43
2022-11-12T15:14:07.404Z,5.18
2022-11-12T15:16:54.121Z,5.32
2022-11-12T15:19:42.810Z,5.55
2022-11-12T15:22:32.482Z,5.40
2022-11-12T15:25:23.414Z,6.03
2022-11-12T15:28:14.267Z,6.20
2022-11-12T15:31:17.810Z,4.93
2022-11-12T15:34:23.162Z,6.13
2022-11-12T15:37:14.333Z,5.65
2022-11-12T15:40:02.891Z,6.05
2022-11-12T15:42:49.216Z,5.82
2022-11-12T15:45:36.137Z,5.80
2022-11-12T15:48:22.832Z,6.35
2022-11-12T15:51:14.296Z,5.90
2022-11-12T15:54:02.108Z,6.68
2022-11-12T15:56:48.767Z,6.28
2022-11-12T15:59:36.372Z,7.25
2022-11-12T16:02:22.866Z,8.52
2022-11-12T16:05:14.072Z,6.28
2022-11-12T16:10:58.961Z,6.35
2022-11-12T16:13:45.344Z,6.93
2022-11-12T16:16:33.513Z,6.68
2022-11-12T16:19:21.686Z,15.13
2022-11-12T16:22:12.872Z,16.67
2022-11-12T16:25:01.096Z,18.48
2022-11-12T16:27:51.477Z,17.35
2022-11-12T16:30:41.581Z,13.63
2022-11-12T16:33:29.439Z,10.27
2022-11-12T16:36:17.964Z,9.30
2022-11-12T16:39:04.295Z,8.18
2022-11-12T16:41:50.853Z,8.50
2022-11-12T16:44:37.489Z,8.02
2022-11-12T16:47:23.749Z,6.85
2022-11-12T16:50:14.690Z,8.25
2022-11-12T16:58:40.581Z,7.45
2022-11-12T17:01:28.266Z,8.30
2022-11-12T17:04:15.237Z,7.60
2022-11-12T17:07:06.968Z,6.63
2022-11-12T17:09:53.766Z,7.47
2022-11-12T17:12:40.253Z,7.50
2022-11-12T17:15:26.868Z,7.70
2022-11-12T17:18:12.789Z,7.30
2022-11-12T17:21:07.518Z,8.50
2022-11-12T17:23:55.423Z,12.15
2022-11-12T17:26:41.821Z,12.50
2022-11-12T17:29:28.615Z,11.63
2022-11-12T17:32:14.828Z,9.70
2022-11-12T17:35:11.431Z,11.40
2022-11-12T17:37:57.547Z,10.68
2022-11-12T17:40:43.875Z,9.55
2022-11-12T17:43:31.365Z,9.80
2022-11-12T17:46:17.942Z,8.55
2022-11-12T17:49:04.106Z,5.88
2022-11-12T17:51:50.293Z,5.82
2022-11-12T17:54:36.946Z,5.25
2022-11-12T17:57:26.385Z,6.25
2022-11-12T18:00:14.391Z,6.38
2022-11-12T18:03:04.395Z,6.30
2022-11-12T18:05:58.593Z,6.38
2022-11-12T18:08:48.291Z,6.45
2022-11-12T18:11:49.271Z,6.13
2022-11-12T18:14:36.611Z,6.30
2022-11-12T18:17:25.908Z,5.90
2022-11-12T18:20:12.902Z,6.03
2022-11-12T18:23:00.633Z,9.32
2022-11-12T18:25:47.494Z,11.32
2022-11-12T18:28:34.437Z,18.83
2022-11-12T18:31:21.114Z,13.38
2022-11-12T18:34:07.270Z,10.10
2022-11-12T18:36:54.211Z,9.50
2022-11-12T18:39:40.476Z,10.18
2022-11-12T18:42:27.733Z,10.57
2022-11-12T18:45:14.309Z,8.93
2022-11-12T18:48:04.912Z,8.55
2022-11-12T18:53:40.945Z,6.32
2022-11-12T18:56:32.854Z,7.20
2022-11-12T18:59:19.308Z,6.47
2022-11-12T19:02:06.011Z,6.53
2022-11-12T19:04:52.411Z,6.65
2022-11-12T19:07:39.532Z,6.85
2022-11-12T19:10:26.002Z,7.03
2022-11-12T19:13:13.514Z,8.02
2022-11-12T19:16:05.814Z,8.07
2022-11-12T19:18:52.722Z,9.63
2022-11-12T19:21:39.072Z,8.73
2022-11-12T19:24:25.163Z,8.95
2022-11-12T19:27:11.417Z,7.43
2022-11-12T19:30:02.606Z,12.70
2022-11-12T19:32:49.734Z,15.55
2022-11-12T19:35:36.256Z,17.88
2022-11-12T19:38:23.887Z,22.23
2022-11-12T19:41:17.704Z,24.05
2022-11-12T19:44:11.499Z,22.17
2022-11-12T19:46:58.103Z,32.17
2022-11-12T19:49:44.488Z,34.17
2022-11-12T19:52:34.078Z,33.63
2022-11-12T19:55:20.276Z,25.98
2022-11-12T19:58:07.288Z,22.30
2022-11-12T20:00:53.788Z,20.90
2022-11-12T20:03:40.437Z,22.27
2022-11-12T20:06:27.286Z,27.30
2022-11-12T20:09:14.210Z,27.50
2022-11-12T20:12:00.482Z,31.23
2022-11-12T20:14:47.682Z,26.75
2022-11-12T20:17:34.595Z,27.00
2022-11-12T20:20:21.259Z,30.15
2022-11-12T20:23:07.598Z,32.53
2022-11-12T20:25:55.153Z,37.83
2022-11-12T20:28:42.165Z,45.33
2022-11-12T20:31:28.307Z,51.60
2022-11-12T20:34:15.666Z,49.45
2022-11-12T20:37:04.964Z,56.38
2022-11-12T20:39:51.262Z,43.80
2022-11-12T20:42:37.461Z,41.13
2022-11-12T20:45:24.051Z,42.42
2022-11-12T20:48:10.908Z,42.95
2022-11-12T20:51:25.483Z,37.60
2022-11-12T20:54:12.825Z,41.90
2022-11-12T20:57:02.368Z,35.90
2022-11-12T21:00:13.575Z,37.25
2022-11-12T21:03:03.627Z,32.45
2022-11-12T21:05:57.937Z,31.60
2022-11-12T21:08:45.177Z,30.48
2022-11-12T21:11:32.227Z,27.48
2022-11-12T21:14:19.043Z,26.50
2022-11-12T21:17:05.231Z,27.88
2022-11-12T21:19:51.418Z,23.92
2022-11-12T21:22:37.520Z,22.77
2022-11-12T21:25:24.100Z,20.95
2022-11-12T21:28:10.281Z,20.17
2022-11-12T21:31:04.235Z,19.13
2022-11-12T21:33:51.580Z,17.52
2022-11-12T21:36:38.305Z,15.30
2022-11-12T21:39:25.204Z,14.38
2022-11-12T21:42:12.361Z,14.60
2022-11-12T21:45:04.004Z,14.73
2022-11-12T21:47:52.281Z,14.55
2022-11-12T21:50:39.416Z,16.30
2022-11-12T21:53:25.933Z,17.98
2022-11-12T21:56:15.550Z,18.52
2022-11-12T21:59:05.103Z,16.17
2022-11-12T22:01:51.437Z,15.20
2022-11-12T22:04:39.238Z,15.65
2022-11-12T22:07:35.738Z,17.08
2022-11-12T22:10:21.737Z,18.48
2022-11-12T22:16:25.176Z,19.33
2022-11-12T22:19:14.282Z,19.75
2022-11-12T22:22:07.534Z,18.73
2022-11-12T22:24:54.216Z,18.13
2022-11-12T22:27:40.453Z,18.67
2022-11-12T22:30:26.508Z,16.60
2022-11-12T22:33:13.310Z,15.77
2022-11-12T22:36:07.687Z,14.95
2022-11-12T22:38:55.955Z,14.30
2022-11-12T22:41:47.473Z,14.00
2022-11-12T22:44:34.143Z,12.75
2022-11-12T22:47:20.480Z,11.15
2022-11-12T22:50:06.812Z,11.82
2022-11-12T22:52:53.401Z,10.23
2022-11-12T22:55:39.567Z,11.95
2022-11-12T22:58:26.141Z,12.70
2022-11-12T23:01:27.152Z,13.25
2022-11-12T23:04:15.531Z,15.40
2022-11-12T23:07:02.922Z,15.52
2022-11-12T23:09:49.097Z,15.15
2022-11-12T23:12:35.075Z,14.98
2022-11-12T23:15:21.574Z,12.90
2022-11-12T23:18:07.613Z,12.77
2022-11-12T23:20:54.347Z,13.93
2022-11-12T23:23:40.778Z,13.52
2022-11-12T23:26:28.893Z,13.13
2022-11-12T23:29:14.619Z,11.15
2022-11-12T23:32:01.728Z,12.18
2022-11-12T23:34:47.872Z,12.25
2022-11-12T23:37:34.365Z,12.32
2022-11-12T23:40:20.205Z,11.27
2022-11-12T23:43:06.489Z,11.85
2022-11-12T23:45:52.856Z,12.07
2022-11-12T23:48:39.061Z,11.02
2022-11-12T23:51:25.211Z,12.02
2022-11-12T23:54:16.926Z,12.48
2022-11-12T23:57:03.677Z,14.20
2022-11-12T23:59:49.841Z,14.88
